CPA665 VHHH-VIDP
Flight info
| Callsign | CPA665 |
|---|---|
| Flight time | 5h 16m |
| Altitude | 34000 |
| Route | PECAN V10 SIKOU/K0932S1040 R339 BSE A599 LXI W148 XSJ W146 GULOT A599 MAKUL/K0920S1100 A599 LINSO/N0497F360 A599 LSO A201 RAJ G463 TEBID A201 BIKIK G463 MONDA A201 PPT J71 KEVOD Z2 JAL JAL7N |
| Aircraft | B77W/H-SDE1E2E3FGHIJ2J3J4J5M1RWXYZ/LB1D1 |
Departure
| Time | 2026-05-07 09:42 |
|---|---|
| Airport | Hong Kong International Airport (VHHH) |
Arrival
| Time | 2026-05-07 14:58 |
|---|---|
| Airport | Indira Gandhi International Airport (VIDP) |
| Time | Latitude | Longitude | Altitude | Speed | Heading |
|---|---|---|---|---|---|
| 2026-05-07 07:59 | 22.31318 | 113.93037 | 42 ft | 0 kts | 340° |
| 2026-05-07 09:28 | 22.31317 | 113.93037 | 42 ft | 0 kts | 340° |
| 2026-05-07 09:28 | 22.31313 | 113.93039 | 41 ft | 2 kts | 340° |
| 2026-05-07 09:28 | 22.31298 | 113.93045 | 40 ft | 2 kts | 340° |
| 2026-05-07 09:29 | 22.31282 | 113.93051 | 38 ft | 2 kts | 340° |
| 2026-05-07 09:29 | 22.31267 | 113.93057 | 39 ft | 2 kts | 313° |
| 2026-05-07 09:29 | 22.31257 | 113.93072 | 37 ft | 2 kts | 291° |
| 2026-05-07 09:29 | 22.31252 | 113.93089 | 42 ft | 2 kts | 281° |
| 2026-05-07 09:30 | 22.31250 | 113.93107 | 42 ft | 2 kts | 269° |
| 2026-05-07 09:30 | 22.31251 | 113.93118 | 42 ft | 1 kts | 256° |
| 2026-05-07 09:30 | 22.31251 | 113.93120 | 42 ft | 0 kts | 255° |
| 2026-05-07 09:32 | 22.31251 | 113.93119 | 42 ft | 0 kts | 255° |
| 2026-05-07 09:32 | 22.31248 | 113.93108 | 42 ft | 3 kts | 252° |
| 2026-05-07 09:32 | 22.31234 | 113.93063 | 39 ft | 9 kts | 251° |
| 2026-05-07 09:32 | 22.31208 | 113.92982 | 42 ft | 12 kts | 250° |
| 2026-05-07 09:33 | 22.31176 | 113.92901 | 42 ft | 12 kts | 234° |
| 2026-05-07 09:33 | 22.31108 | 113.92855 | 42 ft | 12 kts | 207° |
| 2026-05-07 09:33 | 22.31035 | 113.92816 | 42 ft | 12 kts | 206° |
| 2026-05-07 09:33 | 22.30962 | 113.92778 | 42 ft | 12 kts | 206° |
| 2026-05-07 09:34 | 22.30888 | 113.92739 | 42 ft | 12 kts | 206° |
| 2026-05-07 09:34 | 22.30833 | 113.92680 | 42 ft | 12 kts | 250° |
| 2026-05-07 09:34 | 22.30804 | 113.92594 | 42 ft | 14 kts | 251° |
| 2026-05-07 09:34 | 22.30770 | 113.92486 | 42 ft | 17 kts | 251° |
| 2026-05-07 09:35 | 22.30727 | 113.92358 | 42 ft | 18 kts | 250° |
| 2026-05-07 09:35 | 22.30685 | 113.92226 | 42 ft | 18 kts | 251° |
| 2026-05-07 09:35 | 22.30643 | 113.92096 | 42 ft | 18 kts | 251° |
| 2026-05-07 09:35 | 22.30601 | 113.91965 | 42 ft | 18 kts | 250° |
| 2026-05-07 09:36 | 22.30559 | 113.91835 | 42 ft | 18 kts | 251° |
| 2026-05-07 09:36 | 22.30517 | 113.91705 | 42 ft | 18 kts | 251° |
| 2026-05-07 09:36 | 22.30475 | 113.91574 | 42 ft | 18 kts | 251° |
| 2026-05-07 09:36 | 22.30433 | 113.91443 | 41 ft | 18 kts | 250° |
| 2026-05-07 09:37 | 22.30390 | 113.91312 | 42 ft | 18 kts | 250° |
| 2026-05-07 09:37 | 22.30348 | 113.91181 | 42 ft | 18 kts | 251° |
| 2026-05-07 09:37 | 22.30305 | 113.91051 | 42 ft | 18 kts | 251° |
| 2026-05-07 09:37 | 22.30263 | 113.90922 | 42 ft | 18 kts | 251° |
| 2026-05-07 09:38 | 22.30221 | 113.90791 | 42 ft | 18 kts | 251° |
| 2026-05-07 09:38 | 22.30179 | 113.90660 | 42 ft | 18 kts | 251° |
| 2026-05-07 09:38 | 22.30137 | 113.90529 | 41 ft | 19 kts | 251° |
| 2026-05-07 09:38 | 22.30094 | 113.90397 | 41 ft | 19 kts | 251° |
| 2026-05-07 09:39 | 22.30053 | 113.90268 | 41 ft | 19 kts | 251° |
| 2026-05-07 09:39 | 22.30010 | 113.90136 | 41 ft | 19 kts | 251° |
| 2026-05-07 09:39 | 22.29968 | 113.90005 | 41 ft | 19 kts | 251° |
| 2026-05-07 09:39 | 22.29926 | 113.89874 | 41 ft | 19 kts | 251° |
| 2026-05-07 09:40 | 22.29882 | 113.89760 | 42 ft | 13 kts | 229° |
| 2026-05-07 09:40 | 22.29800 | 113.89746 | 42 ft | 12 kts | 162° |
| 2026-05-07 09:40 | 22.29720 | 113.89774 | 42 ft | 12 kts | 162° |
| 2026-05-07 09:40 | 22.29645 | 113.89803 | 42 ft | 9 kts | 159° |
| 2026-05-07 09:41 | 22.29630 | 113.89846 | 42 ft | 7 kts | 77° |
| 2026-05-07 09:41 | 22.29651 | 113.89900 | 42 ft | 14 kts | 72° |
| 2026-05-07 09:41 | 22.29725 | 113.90128 | 40 ft | 61 kts | 70° |
| 2026-05-07 09:41 | 22.29948 | 113.90815 | 43 ft | 130 kts | 71° |
| 2026-05-07 09:42 | 22.30311 | 113.91945 | 43 ft | 185 kts | 71° |
| 2026-05-07 09:42 | 22.30741 | 113.93283 | 251 ft | 206 kts | 70° |
| 2026-05-07 09:42 | 22.31154 | 113.94587 | 922 ft | 200 kts | 75° |
| 2026-05-07 09:42 | 22.31584 | 113.96002 | 1566 ft | 204 kts | 71° |
| 2026-05-07 09:43 | 22.32063 | 113.97474 | 1993 ft | 214 kts | 75° |
| 2026-05-07 09:43 | 22.32554 | 113.99026 | 2431 ft | 223 kts | 72° |
| 2026-05-07 09:43 | 22.33086 | 114.00629 | 2953 ft | 228 kts | 72° |
| 2026-05-07 09:43 | 22.33615 | 114.02249 | 3603 ft | 227 kts | 73° |
| 2026-05-07 09:44 | 22.33831 | 114.03945 | 4111 ft | 231 kts | 95° |
| 2026-05-07 09:44 | 22.33467 | 114.05646 | 4662 ft | 234 kts | 115° |
| 2026-05-07 09:44 | 22.32538 | 114.07085 | 5181 ft | 236 kts | 136° |
| 2026-05-07 09:44 | 22.31208 | 114.08143 | 5598 ft | 244 kts | 156° |
| 2026-05-07 09:45 | 22.29552 | 114.08687 | 5945 ft | 253 kts | 175° |
| 2026-05-07 09:45 | 22.27799 | 114.08756 | 6415 ft | 259 kts | 183° |
| 2026-05-07 09:45 | 22.25935 | 114.08715 | 6750 ft | 273 kts | 183° |
| 2026-05-07 09:45 | 22.24006 | 114.08688 | 7302 ft | 280 kts | 182° |
| 2026-05-07 09:46 | 22.22037 | 114.08666 | 7934 ft | 284 kts | 182° |
| 2026-05-07 09:46 | 22.20051 | 114.08646 | 8621 ft | 286 kts | 182° |
| 2026-05-07 09:46 | 22.18052 | 114.08683 | 9251 ft | 288 kts | 173° |
| 2026-05-07 09:46 | 22.16163 | 114.09488 | 9765 ft | 301 kts | 144° |
| 2026-05-07 09:47 | 22.14776 | 114.11207 | 10233 ft | 311 kts | 121° |
| 2026-05-07 09:47 | 22.13747 | 114.13315 | 10387 ft | 333 kts | 118° |
| 2026-05-07 09:47 | 22.12686 | 114.15626 | 10562 ft | 355 kts | 117° |
| 2026-05-07 09:47 | 22.11556 | 114.18092 | 10729 ft | 376 kts | 118° |
| 2026-05-07 09:48 | 22.10348 | 114.20677 | 11080 ft | 391 kts | 118° |
| 2026-05-07 09:48 | 22.09096 | 114.23319 | 11631 ft | 400 kts | 118° |
| 2026-05-07 09:48 | 22.07744 | 114.25901 | 12227 ft | 402 kts | 128° |
| 2026-05-07 09:48 | 22.05726 | 114.27974 | 12816 ft | 400 kts | 147° |
| 2026-05-07 09:49 | 22.03394 | 114.29661 | 13390 ft | 408 kts | 147° |
| 2026-05-07 09:49 | 22.01064 | 114.31429 | 14056 ft | 410 kts | 147° |
| 2026-05-07 09:49 | 21.98537 | 114.32815 | 14506 ft | 410 kts | 167° |
| 2026-05-07 09:49 | 21.95737 | 114.33121 | 15089 ft | 408 kts | 187° |
| 2026-05-07 09:50 | 21.92964 | 114.32463 | 15806 ft | 405 kts | 202° |
| 2026-05-07 09:50 | 21.90483 | 114.31076 | 16462 ft | 401 kts | 218° |
| 2026-05-07 09:50 | 21.88266 | 114.29220 | 16933 ft | 407 kts | 221° |
| 2026-05-07 09:50 | 21.86057 | 114.27276 | 17512 ft | 412 kts | 221° |
| 2026-05-07 09:51 | 21.83836 | 114.25315 | 18169 ft | 414 kts | 221° |
| 2026-05-07 09:51 | 21.81592 | 114.23355 | 18731 ft | 417 kts | 221° |
| 2026-05-07 09:51 | 21.79317 | 114.21392 | 19262 ft | 421 kts | 221° |
| 2026-05-07 09:51 | 21.77011 | 114.19420 | 19786 ft | 425 kts | 220° |
| 2026-05-07 09:52 | 21.74683 | 114.17440 | 20302 ft | 428 kts | 220° |
| 2026-05-07 09:52 | 21.72356 | 114.15465 | 20816 ft | 431 kts | 220° |
| 2026-05-07 09:52 | 21.69989 | 114.13456 | 21323 ft | 435 kts | 220° |
| 2026-05-07 09:52 | 21.67606 | 114.11433 | 21826 ft | 438 kts | 220° |
| 2026-05-07 09:53 | 21.65166 | 114.09444 | 22265 ft | 442 kts | 215° |
| 2026-05-07 09:53 | 21.62344 | 114.08058 | 22598 ft | 452 kts | 197° |
| 2026-05-07 09:53 | 21.59248 | 114.07331 | 22956 ft | 457 kts | 194° |
| 2026-05-07 09:53 | 21.56125 | 114.06613 | 23385 ft | 461 kts | 195° |
| 2026-05-07 09:54 | 21.53025 | 114.05856 | 23805 ft | 463 kts | 196° |
| 2026-05-07 09:54 | 21.49886 | 114.05052 | 24227 ft | 465 kts | 196° |
| 2026-05-07 09:54 | 21.46722 | 114.04228 | 24621 ft | 467 kts | 196° |
| 2026-05-07 09:54 | 21.43586 | 114.03277 | 24971 ft | 468 kts | 204° |
| 2026-05-07 09:55 | 21.40759 | 114.01598 | 25266 ft | 465 kts | 216° |
| 2026-05-07 09:55 | 21.38118 | 113.99636 | 25548 ft | 469 kts | 217° |
| 2026-05-07 09:55 | 21.35428 | 113.97620 | 25887 ft | 472 kts | 217° |
| 2026-05-07 09:55 | 21.32707 | 113.95616 | 26261 ft | 474 kts | 216° |
| 2026-05-07 09:56 | 21.29961 | 113.93634 | 26630 ft | 477 kts | 216° |
| 2026-05-07 09:56 | 21.27180 | 113.91658 | 26972 ft | 480 kts | 216° |
| 2026-05-07 09:56 | 21.24379 | 113.89683 | 27306 ft | 483 kts | 216° |
| 2026-05-07 09:56 | 21.21557 | 113.87697 | 27622 ft | 486 kts | 215° |
| 2026-05-07 09:57 | 21.18754 | 113.85724 | 27942 ft | 488 kts | 216° |
| 2026-05-07 09:57 | 21.15907 | 113.83717 | 28249 ft | 491 kts | 216° |
| 2026-05-07 09:57 | 21.13055 | 113.81693 | 28529 ft | 491 kts | 217° |
| 2026-05-07 09:57 | 21.10457 | 113.79311 | 28713 ft | 492 kts | 229° |
| 2026-05-07 09:58 | 21.08360 | 113.76421 | 28965 ft | 491 kts | 239° |
| 2026-05-07 09:58 | 21.06742 | 113.73204 | 29252 ft | 490 kts | 249° |
| 2026-05-07 09:58 | 21.05603 | 113.69763 | 29480 ft | 490 kts | 253° |
| 2026-05-07 09:58 | 21.04538 | 113.66325 | 29667 ft | 493 kts | 253° |
| 2026-05-07 09:59 | 21.03459 | 113.62830 | 29903 ft | 495 kts | 253° |
| 2026-05-07 09:59 | 21.02367 | 113.59328 | 30189 ft | 495 kts | 253° |
| 2026-05-07 09:59 | 21.01263 | 113.55843 | 30508 ft | 494 kts | 252° |
| 2026-05-07 09:59 | 21.00147 | 113.52368 | 30808 ft | 493 kts | 252° |
| 2026-05-07 10:00 | 20.99021 | 113.48890 | 31115 ft | 493 kts | 252° |
| 2026-05-07 10:00 | 20.97894 | 113.45426 | 31400 ft | 493 kts | 252° |
| 2026-05-07 10:00 | 20.96762 | 113.41956 | 31695 ft | 493 kts | 252° |
| 2026-05-07 10:00 | 20.95630 | 113.38487 | 32005 ft | 492 kts | 252° |
| 2026-05-07 10:01 | 20.94502 | 113.35032 | 32296 ft | 491 kts | 252° |
| 2026-05-07 10:01 | 20.93386 | 113.31614 | 32599 ft | 491 kts | 252° |
| 2026-05-07 10:01 | 20.92258 | 113.28158 | 32899 ft | 491 kts | 252° |
| 2026-05-07 10:01 | 20.91134 | 113.24716 | 33191 ft | 490 kts | 252° |
| 2026-05-07 10:02 | 20.90004 | 113.21258 | 33437 ft | 491 kts | 252° |
| 2026-05-07 10:02 | 20.88875 | 113.17806 | 33732 ft | 490 kts | 252° |
| 2026-05-07 10:02 | 20.87763 | 113.14412 | 33905 ft | 491 kts | 252° |
| 2026-05-07 10:03 | 20.85521 | 113.07569 | 33985 ft | 489 kts | 252° |
| 2026-05-07 10:03 | 20.83248 | 113.00646 | 33986 ft | 487 kts | 252° |
| 2026-05-07 10:04 | 20.81013 | 112.93848 | 33993 ft | 487 kts | 252° |
| 2026-05-07 10:04 | 20.78759 | 112.87000 | 33991 ft | 487 kts | 252° |
| 2026-05-07 10:05 | 20.76505 | 112.80165 | 33990 ft | 487 kts | 252° |
| 2026-05-07 10:05 | 20.74265 | 112.73383 | 33987 ft | 486 kts | 252° |
| 2026-05-07 10:06 | 20.72012 | 112.66571 | 33987 ft | 485 kts | 252° |
| 2026-05-07 10:06 | 20.69753 | 112.59750 | 33988 ft | 485 kts | 252° |
| 2026-05-07 10:07 | 20.67498 | 112.52952 | 33986 ft | 485 kts | 252° |
| 2026-05-07 10:07 | 20.65257 | 112.46205 | 33987 ft | 484 kts | 252° |
| 2026-05-07 10:08 | 20.63003 | 112.39429 | 33984 ft | 484 kts | 252° |
| 2026-05-07 10:08 | 20.60757 | 112.32688 | 33983 ft | 484 kts | 252° |
| 2026-05-07 10:09 | 20.58498 | 112.25912 | 33983 ft | 484 kts | 252° |
| 2026-05-07 10:09 | 20.56644 | 112.20282 | 33979 ft | 481 kts | 256° |
| 2026-05-07 10:09 | 20.56110 | 112.16777 | 33981 ft | 479 kts | 270° |
| 2026-05-07 10:10 | 20.56351 | 112.13225 | 33992 ft | 479 kts | 281° |
| 2026-05-07 10:10 | 20.57240 | 112.09797 | 33981 ft | 480 kts | 293° |
| 2026-05-07 10:10 | 20.58670 | 112.06629 | 33994 ft | 479 kts | 296° |
| 2026-05-07 10:11 | 20.61676 | 112.00255 | 33987 ft | 481 kts | 296° |
| 2026-05-07 10:11 | 20.64633 | 111.93847 | 33982 ft | 480 kts | 295° |
| 2026-05-07 10:12 | 20.67523 | 111.87456 | 33985 ft | 479 kts | 295° |
| 2026-05-07 10:12 | 20.70415 | 111.81024 | 33983 ft | 479 kts | 295° |
| 2026-05-07 10:13 | 20.73294 | 111.74618 | 33984 ft | 479 kts | 295° |
| 2026-05-07 10:13 | 20.76185 | 111.68182 | 33982 ft | 479 kts | 295° |
| 2026-05-07 10:14 | 20.79055 | 111.61786 | 33979 ft | 479 kts | 295° |
| 2026-05-07 10:14 | 20.81946 | 111.55336 | 33981 ft | 479 kts | 295° |
| 2026-05-07 10:15 | 20.84614 | 111.48861 | 33984 ft | 478 kts | 289° |
| 2026-05-07 10:15 | 20.86399 | 111.42006 | 33988 ft | 478 kts | 284° |
| 2026-05-07 10:16 | 20.88063 | 111.35113 | 33983 ft | 478 kts | 284° |
| 2026-05-07 10:16 | 20.89750 | 111.28264 | 33980 ft | 478 kts | 285° |
| 2026-05-07 10:17 | 20.91461 | 111.21382 | 33978 ft | 478 kts | 285° |
| 2026-05-07 10:17 | 20.93163 | 111.14527 | 33979 ft | 478 kts | 285° |
| 2026-05-07 10:18 | 20.94870 | 111.07632 | 33979 ft | 479 kts | 285° |
| 2026-05-07 10:18 | 20.96589 | 111.00739 | 33979 ft | 479 kts | 285° |
| 2026-05-07 10:19 | 20.98335 | 110.93855 | 33978 ft | 479 kts | 285° |
| 2026-05-07 10:19 | 21.00067 | 110.87015 | 33973 ft | 479 kts | 285° |
| 2026-05-07 10:20 | 21.01808 | 110.80108 | 33978 ft | 479 kts | 285° |
| 2026-05-07 10:20 | 21.03530 | 110.73257 | 33977 ft | 479 kts | 285° |
| 2026-05-07 10:21 | 21.05260 | 110.66360 | 33980 ft | 479 kts | 285° |
| 2026-05-07 10:21 | 21.06980 | 110.59490 | 33978 ft | 478 kts | 285° |
| 2026-05-07 10:22 | 21.08703 | 110.52596 | 33979 ft | 478 kts | 285° |
| 2026-05-07 10:22 | 21.10422 | 110.45707 | 33979 ft | 477 kts | 285° |
| 2026-05-07 10:23 | 21.12126 | 110.38864 | 33979 ft | 477 kts | 285° |
| 2026-05-07 10:23 | 21.14177 | 110.32160 | 33983 ft | 476 kts | 293° |
| 2026-05-07 10:24 | 21.17201 | 110.25833 | 33985 ft | 476 kts | 298° |
| 2026-05-07 10:24 | 21.20392 | 110.19616 | 33979 ft | 476 kts | 298° |
| 2026-05-07 10:25 | 21.23564 | 110.13376 | 33980 ft | 476 kts | 298° |
| 2026-05-07 10:25 | 21.26707 | 110.07137 | 33981 ft | 475 kts | 298° |
| 2026-05-07 10:26 | 21.29841 | 110.00894 | 33977 ft | 474 kts | 298° |
| 2026-05-07 10:26 | 21.32945 | 109.94706 | 33978 ft | 474 kts | 298° |
| 2026-05-07 10:27 | 21.36069 | 109.88473 | 33983 ft | 474 kts | 298° |
| 2026-05-07 10:27 | 21.39194 | 109.82231 | 33978 ft | 474 kts | 298° |
| 2026-05-07 10:28 | 21.42321 | 109.75978 | 33981 ft | 474 kts | 298° |
| 2026-05-07 10:28 | 21.45416 | 109.69783 | 33979 ft | 473 kts | 297° |
| 2026-05-07 10:29 | 21.48531 | 109.63539 | 33977 ft | 473 kts | 297° |
| 2026-05-07 10:29 | 21.51640 | 109.57299 | 33975 ft | 473 kts | 297° |
| 2026-05-07 10:30 | 21.56285 | 109.47964 | 33975 ft | 473 kts | 297° |
| 2026-05-07 10:30 | 21.59667 | 109.41898 | 33981 ft | 473 kts | 305° |
| 2026-05-07 10:31 | 21.63836 | 109.36458 | 33973 ft | 474 kts | 309° |
| 2026-05-07 10:31 | 21.68127 | 109.31054 | 33968 ft | 474 kts | 309° |
| 2026-05-07 10:32 | 21.72357 | 109.25662 | 33971 ft | 473 kts | 309° |
| 2026-05-07 10:32 | 21.76592 | 109.20231 | 33966 ft | 473 kts | 309° |
| 2026-05-07 10:33 | 21.80818 | 109.14803 | 33964 ft | 472 kts | 309° |
| 2026-05-07 10:33 | 21.85021 | 109.09405 | 33967 ft | 472 kts | 309° |
| 2026-05-07 10:34 | 21.89262 | 109.03982 | 33964 ft | 472 kts | 309° |
| 2026-05-07 10:34 | 21.93501 | 108.98574 | 33968 ft | 472 kts | 309° |
| 2026-05-07 10:35 | 21.97712 | 108.93190 | 33962 ft | 471 kts | 309° |
| 2026-05-07 10:35 | 22.01938 | 108.87778 | 33960 ft | 471 kts | 309° |
| 2026-05-07 10:36 | 22.06133 | 108.82400 | 33966 ft | 471 kts | 308° |
| 2026-05-07 10:36 | 22.10351 | 108.76986 | 33960 ft | 470 kts | 308° |
| 2026-05-07 10:37 | 22.14566 | 108.71584 | 33962 ft | 469 kts | 308° |
| 2026-05-07 10:37 | 22.18756 | 108.66232 | 33961 ft | 469 kts | 308° |
| 2026-05-07 10:38 | 22.22973 | 108.60840 | 33963 ft | 469 kts | 308° |
| 2026-05-07 10:38 | 22.27184 | 108.55445 | 33957 ft | 469 kts | 308° |
| 2026-05-07 10:39 | 22.31388 | 108.50052 | 33959 ft | 468 kts | 308° |
| 2026-05-07 10:39 | 22.35592 | 108.44653 | 33961 ft | 468 kts | 308° |
| 2026-05-07 10:40 | 22.39756 | 108.39302 | 33961 ft | 468 kts | 308° |
| 2026-05-07 10:40 | 22.43953 | 108.33901 | 33957 ft | 468 kts | 308° |
| 2026-05-07 10:41 | 22.48121 | 108.28532 | 33960 ft | 468 kts | 308° |
| 2026-05-07 10:41 | 22.52323 | 108.23114 | 33955 ft | 468 kts | 308° |
| 2026-05-07 10:42 | 22.56507 | 108.17712 | 33960 ft | 468 kts | 308° |
| 2026-05-07 10:42 | 22.60781 | 108.12435 | 33960 ft | 469 kts | 311° |
| 2026-05-07 10:43 | 22.65283 | 108.07316 | 33963 ft | 469 kts | 311° |
| 2026-05-07 10:43 | 22.69805 | 108.02200 | 33955 ft | 469 kts | 311° |
| 2026-05-07 10:44 | 22.74271 | 107.97108 | 33956 ft | 469 kts | 311° |
| 2026-05-07 10:44 | 22.78766 | 107.91958 | 33962 ft | 469 kts | 311° |
| 2026-05-07 10:45 | 22.83223 | 107.86845 | 33972 ft | 470 kts | 311° |
| 2026-05-07 10:45 | 22.85498 | 107.84233 | 34172 ft | 470 kts | 311° |
| 2026-05-07 10:45 | 22.87718 | 107.81684 | 34449 ft | 469 kts | 311° |
| 2026-05-07 10:46 | 22.89959 | 107.79111 | 34665 ft | 468 kts | 311° |
| 2026-05-07 10:46 | 22.92191 | 107.76546 | 34887 ft | 467 kts | 310° |
| 2026-05-07 10:46 | 22.94409 | 107.73995 | 35130 ft | 464 kts | 310° |
| 2026-05-07 10:46 | 22.96629 | 107.71440 | 35359 ft | 464 kts | 310° |
| 2026-05-07 10:47 | 22.98846 | 107.68885 | 35585 ft | 464 kts | 310° |
| 2026-05-07 10:47 | 23.01061 | 107.66335 | 35822 ft | 463 kts | 310° |
| 2026-05-07 10:47 | 23.05504 | 107.61217 | 35938 ft | 465 kts | 310° |
| 2026-05-07 10:48 | 23.09911 | 107.56143 | 35964 ft | 462 kts | 310° |
| 2026-05-07 10:48 | 23.14311 | 107.51069 | 35974 ft | 461 kts | 310° |
| 2026-05-07 10:49 | 23.18721 | 107.45976 | 35978 ft | 461 kts | 310° |
| 2026-05-07 10:49 | 23.23125 | 107.40884 | 35979 ft | 462 kts | 310° |
| 2026-05-07 10:50 | 23.27502 | 107.35818 | 35979 ft | 462 kts | 310° |
| 2026-05-07 10:50 | 23.31916 | 107.30705 | 35983 ft | 462 kts | 310° |
| 2026-05-07 10:51 | 23.36289 | 107.25635 | 35984 ft | 461 kts | 310° |
| 2026-05-07 10:51 | 23.40689 | 107.20527 | 35977 ft | 462 kts | 310° |
| 2026-05-07 10:52 | 23.45088 | 107.15416 | 35981 ft | 460 kts | 310° |
| 2026-05-07 10:52 | 23.49445 | 107.10347 | 35986 ft | 460 kts | 310° |
| 2026-05-07 10:53 | 23.53833 | 107.05237 | 35985 ft | 460 kts | 310° |
| 2026-05-07 10:53 | 23.57471 | 107.00996 | 35985 ft | 460 kts | 310° |
| 2026-05-07 10:54 | 23.62559 | 106.95061 | 35986 ft | 459 kts | 310° |
| 2026-05-07 10:54 | 23.66188 | 106.90821 | 35992 ft | 459 kts | 310° |
| 2026-05-07 10:55 | 23.70545 | 106.85726 | 35990 ft | 459 kts | 310° |
| 2026-05-07 10:55 | 23.74919 | 106.80607 | 35979 ft | 459 kts | 310° |
| 2026-05-07 10:56 | 23.79276 | 106.75502 | 35987 ft | 458 kts | 310° |
| 2026-05-07 10:56 | 23.83600 | 106.70428 | 35985 ft | 458 kts | 309° |
| 2026-05-07 10:57 | 23.87949 | 106.65323 | 35988 ft | 458 kts | 309° |
| 2026-05-07 10:57 | 23.91596 | 106.59704 | 36001 ft | 452 kts | 295° |
| 2026-05-07 10:58 | 23.93835 | 106.53345 | 35987 ft | 451 kts | 282° |
| 2026-05-07 10:58 | 23.95173 | 106.46652 | 36003 ft | 450 kts | 281° |
| 2026-05-07 10:59 | 23.96466 | 106.39933 | 36002 ft | 450 kts | 281° |
| 2026-05-07 10:59 | 23.97790 | 106.33242 | 36005 ft | 450 kts | 282° |
| 2026-05-07 11:00 | 23.99126 | 106.26599 | 36012 ft | 449 kts | 281° |
| 2026-05-07 11:00 | 24.00474 | 106.19903 | 36010 ft | 451 kts | 282° |
| 2026-05-07 11:01 | 24.01819 | 106.13209 | 36009 ft | 448 kts | 282° |
| 2026-05-07 11:01 | 24.03144 | 106.06590 | 36016 ft | 448 kts | 281° |
| 2026-05-07 11:02 | 24.04478 | 105.99909 | 36028 ft | 450 kts | 282° |
| 2026-05-07 11:02 | 24.05810 | 105.93221 | 36031 ft | 449 kts | 282° |
| 2026-05-07 11:03 | 24.07139 | 105.86538 | 36026 ft | 449 kts | 282° |
| 2026-05-07 11:03 | 24.08455 | 105.79894 | 36012 ft | 449 kts | 282° |
| 2026-05-07 11:04 | 24.09782 | 105.73191 | 36032 ft | 450 kts | 282° |
| 2026-05-07 11:04 | 24.11182 | 105.66489 | 36048 ft | 452 kts | 284° |
| 2026-05-07 11:05 | 24.12833 | 105.59886 | 36045 ft | 451 kts | 285° |
| 2026-05-07 11:05 | 24.14499 | 105.53272 | 36055 ft | 449 kts | 284° |
| 2026-05-07 11:06 | 24.16122 | 105.46652 | 36060 ft | 450 kts | 284° |
| 2026-05-07 11:06 | 24.17726 | 105.40042 | 36051 ft | 451 kts | 284° |
| 2026-05-07 11:07 | 24.19331 | 105.33409 | 36055 ft | 450 kts | 284° |
| 2026-05-07 11:07 | 24.20934 | 105.26777 | 36061 ft | 450 kts | 284° |
| 2026-05-07 11:08 | 24.22528 | 105.20145 | 36060 ft | 450 kts | 283° |
| 2026-05-07 11:08 | 24.24019 | 105.13497 | 36075 ft | 449 kts | 282° |
| 2026-05-07 11:09 | 24.25475 | 105.06835 | 36070 ft | 449 kts | 282° |
| 2026-05-07 11:09 | 24.26935 | 105.00185 | 36066 ft | 449 kts | 282° |
| 2026-05-07 11:10 | 24.28393 | 104.93566 | 36065 ft | 448 kts | 282° |
| 2026-05-07 11:10 | 24.29858 | 104.86916 | 36069 ft | 448 kts | 282° |
| 2026-05-07 11:11 | 24.31320 | 104.80266 | 36068 ft | 449 kts | 282° |
| 2026-05-07 11:11 | 24.32773 | 104.73648 | 36070 ft | 449 kts | 282° |
| 2026-05-07 11:12 | 24.34228 | 104.66994 | 36075 ft | 449 kts | 282° |
| 2026-05-07 11:12 | 24.35684 | 104.60327 | 36079 ft | 448 kts | 282° |
| 2026-05-07 11:13 | 24.37134 | 104.53671 | 36074 ft | 448 kts | 282° |
| 2026-05-07 11:13 | 24.38569 | 104.47065 | 36077 ft | 447 kts | 282° |
| 2026-05-07 11:14 | 24.40010 | 104.40425 | 36091 ft | 448 kts | 282° |
| 2026-05-07 11:14 | 24.41454 | 104.33755 | 36100 ft | 449 kts | 282° |
| 2026-05-07 11:15 | 24.42891 | 104.27092 | 36105 ft | 447 kts | 282° |
| 2026-05-07 11:15 | 24.44314 | 104.20488 | 36114 ft | 446 kts | 282° |
| 2026-05-07 11:16 | 24.45740 | 104.13858 | 36126 ft | 445 kts | 282° |
| 2026-05-07 11:16 | 24.47153 | 104.07266 | 36135 ft | 446 kts | 282° |
| 2026-05-07 11:17 | 24.48578 | 104.00604 | 36128 ft | 448 kts | 282° |
| 2026-05-07 11:17 | 24.49992 | 103.93982 | 36125 ft | 447 kts | 282° |
| 2026-05-07 11:18 | 24.51409 | 103.87327 | 36128 ft | 447 kts | 282° |
| 2026-05-07 11:18 | 24.52819 | 103.80693 | 36147 ft | 449 kts | 282° |
| 2026-05-07 11:19 | 24.54050 | 103.73969 | 36146 ft | 448 kts | 276° |
| 2026-05-07 11:19 | 24.54368 | 103.67127 | 36142 ft | 448 kts | 271° |
| 2026-05-07 11:20 | 24.54476 | 103.60315 | 36143 ft | 448 kts | 271° |
| 2026-05-07 11:20 | 24.54604 | 103.53469 | 36142 ft | 448 kts | 271° |
| 2026-05-07 11:21 | 24.54742 | 103.46606 | 36144 ft | 448 kts | 271° |
| 2026-05-07 11:21 | 24.54879 | 103.39760 | 36138 ft | 448 kts | 271° |
| 2026-05-07 11:22 | 24.55011 | 103.32930 | 36143 ft | 449 kts | 271° |
| 2026-05-07 11:22 | 24.55141 | 103.26058 | 36142 ft | 449 kts | 271° |
| 2026-05-07 11:23 | 24.55716 | 103.19272 | 36150 ft | 449 kts | 279° |
| 2026-05-07 11:23 | 24.57241 | 103.12593 | 36141 ft | 452 kts | 288° |
| 2026-05-07 11:24 | 24.59429 | 103.06160 | 36136 ft | 451 kts | 289° |
| 2026-05-07 11:24 | 24.61668 | 102.99706 | 36140 ft | 451 kts | 289° |
| 2026-05-07 11:25 | 24.63852 | 102.93283 | 36142 ft | 450 kts | 288° |
| 2026-05-07 11:25 | 24.66032 | 102.86828 | 36149 ft | 450 kts | 288° |
| 2026-05-07 11:26 | 24.67595 | 102.80188 | 36156 ft | 447 kts | 277° |
| 2026-05-07 11:26 | 24.67995 | 102.73375 | 36147 ft | 448 kts | 267° |
| 2026-05-07 11:27 | 24.67535 | 102.66570 | 36156 ft | 448 kts | 265° |
| 2026-05-07 11:27 | 24.67064 | 102.59719 | 36146 ft | 448 kts | 266° |
| 2026-05-07 11:28 | 24.66679 | 102.52876 | 36148 ft | 447 kts | 267° |
| 2026-05-07 11:28 | 24.66403 | 102.46076 | 36150 ft | 448 kts | 268° |
| 2026-05-07 11:29 | 24.66130 | 102.39217 | 36140 ft | 448 kts | 267° |
| 2026-05-07 11:29 | 24.65842 | 102.32407 | 36133 ft | 447 kts | 267° |
| 2026-05-07 11:30 | 24.65542 | 102.25576 | 36136 ft | 447 kts | 267° |
| 2026-05-07 11:30 | 24.65238 | 102.18713 | 36127 ft | 449 kts | 267° |
| 2026-05-07 11:31 | 24.64931 | 102.11895 | 36119 ft | 449 kts | 267° |
| 2026-05-07 11:31 | 24.64618 | 102.05024 | 36127 ft | 450 kts | 267° |
| 2026-05-07 11:32 | 24.64154 | 101.94749 | 36101 ft | 449 kts | 267° |
| 2026-05-07 11:33 | 24.63832 | 101.87883 | 36096 ft | 449 kts | 267° |
| 2026-05-07 11:33 | 24.63509 | 101.81005 | 36085 ft | 450 kts | 266° |
| 2026-05-07 11:34 | 24.63184 | 101.74123 | 36087 ft | 450 kts | 266° |
| 2026-05-07 11:34 | 24.62859 | 101.67281 | 36079 ft | 449 kts | 266° |
| 2026-05-07 11:35 | 24.62416 | 101.60421 | 36075 ft | 449 kts | 261° |
| 2026-05-07 11:35 | 24.60793 | 101.53823 | 36081 ft | 451 kts | 251° |
| 2026-05-07 11:36 | 24.58099 | 101.47583 | 36090 ft | 454 kts | 243° |
| 2026-05-07 11:36 | 24.55044 | 101.41510 | 36088 ft | 453 kts | 243° |
| 2026-05-07 11:37 | 24.52009 | 101.35471 | 36081 ft | 453 kts | 243° |
| 2026-05-07 11:37 | 24.48984 | 101.29387 | 36048 ft | 454 kts | 243° |
| 2026-05-07 11:38 | 24.46467 | 101.24303 | 36072 ft | 455 kts | 243° |
| 2026-05-07 11:38 | 24.42947 | 101.17200 | 36083 ft | 455 kts | 243° |
| 2026-05-07 11:39 | 24.40427 | 101.12118 | 36082 ft | 455 kts | 243° |
| 2026-05-07 11:39 | 24.36903 | 101.05024 | 36085 ft | 454 kts | 243° |
| 2026-05-07 11:40 | 24.34386 | 100.99964 | 36080 ft | 455 kts | 243° |
| 2026-05-07 11:40 | 24.31340 | 100.93848 | 36072 ft | 455 kts | 243° |
| 2026-05-07 11:41 | 24.28303 | 100.87762 | 36067 ft | 453 kts | 243° |
| 2026-05-07 11:41 | 24.25286 | 100.81719 | 36066 ft | 456 kts | 243° |
| 2026-05-07 11:42 | 24.22231 | 100.75609 | 36058 ft | 456 kts | 243° |
| 2026-05-07 11:42 | 24.19188 | 100.69531 | 36042 ft | 453 kts | 243° |
| 2026-05-07 11:43 | 24.16167 | 100.63502 | 36053 ft | 454 kts | 243° |
| 2026-05-07 11:43 | 24.13123 | 100.57435 | 36052 ft | 454 kts | 243° |
| 2026-05-07 11:44 | 24.10057 | 100.51379 | 36051 ft | 454 kts | 242° |
| 2026-05-07 11:44 | 24.06957 | 100.45339 | 36046 ft | 454 kts | 242° |
| 2026-05-07 11:45 | 24.03873 | 100.39342 | 36052 ft | 454 kts | 242° |
| 2026-05-07 11:45 | 24.00769 | 100.33298 | 36052 ft | 455 kts | 242° |
| 2026-05-07 11:46 | 23.97653 | 100.27237 | 36040 ft | 455 kts | 242° |
| 2026-05-07 11:46 | 23.94578 | 100.21261 | 36039 ft | 454 kts | 242° |
| 2026-05-07 11:47 | 23.91471 | 100.15229 | 36047 ft | 455 kts | 242° |
| 2026-05-07 11:47 | 23.88359 | 100.09195 | 36039 ft | 455 kts | 242° |
| 2026-05-07 11:48 | 23.85247 | 100.03169 | 36030 ft | 454 kts | 242° |
| 2026-05-07 11:48 | 23.82150 | 99.97179 | 35996 ft | 456 kts | 242° |
| 2026-05-07 11:49 | 23.79029 | 99.91150 | 35942 ft | 456 kts | 242° |
| 2026-05-07 11:49 | 23.75906 | 99.85126 | 35939 ft | 455 kts | 242° |
| 2026-05-07 11:50 | 23.72808 | 99.79157 | 35936 ft | 455 kts | 242° |
| 2026-05-07 11:50 | 23.69676 | 99.73130 | 35934 ft | 455 kts | 242° |
| 2026-05-07 11:51 | 23.66547 | 99.67115 | 35934 ft | 454 kts | 242° |
| 2026-05-07 11:51 | 23.63447 | 99.61165 | 35925 ft | 454 kts | 242° |
| 2026-05-07 11:52 | 23.60317 | 99.55160 | 35929 ft | 455 kts | 242° |
| 2026-05-07 11:52 | 23.57184 | 99.49156 | 35924 ft | 455 kts | 242° |
| 2026-05-07 11:53 | 23.54051 | 99.43146 | 35923 ft | 455 kts | 243° |
| 2026-05-07 11:53 | 23.51537 | 99.36891 | 35921 ft | 453 kts | 252° |
| 2026-05-07 11:54 | 23.49554 | 99.30370 | 35921 ft | 452 kts | 252° |
| 2026-05-07 11:54 | 23.47557 | 99.23866 | 35926 ft | 453 kts | 252° |
| 2026-05-07 11:55 | 23.45544 | 99.17390 | 35924 ft | 454 kts | 252° |
| 2026-05-07 11:55 | 23.43513 | 99.10885 | 35909 ft | 453 kts | 252° |
| 2026-05-07 11:56 | 23.41484 | 99.04395 | 35895 ft | 451 kts | 252° |
| 2026-05-07 11:56 | 23.39460 | 98.97922 | 35912 ft | 452 kts | 252° |
| 2026-05-07 11:57 | 23.37436 | 98.91467 | 35905 ft | 452 kts | 252° |
| 2026-05-07 11:57 | 23.35317 | 98.85029 | 35890 ft | 452 kts | 251° |
| 2026-05-07 11:58 | 23.33134 | 98.78586 | 35906 ft | 452 kts | 251° |
| 2026-05-07 11:58 | 23.30974 | 98.72196 | 35893 ft | 452 kts | 251° |
| 2026-05-07 11:59 | 23.28812 | 98.65776 | 35886 ft | 452 kts | 251° |
| 2026-05-07 11:59 | 23.26649 | 98.59348 | 35888 ft | 451 kts | 251° |
| 2026-05-07 12:00 | 23.24488 | 98.52938 | 35891 ft | 451 kts | 251° |
| 2026-05-07 12:00 | 23.22324 | 98.46527 | 35895 ft | 452 kts | 251° |
| 2026-05-07 12:01 | 23.20164 | 98.40144 | 35893 ft | 451 kts | 251° |
| 2026-05-07 12:01 | 23.17998 | 98.33746 | 35894 ft | 450 kts | 251° |
| 2026-05-07 12:02 | 23.15841 | 98.27385 | 35883 ft | 451 kts | 251° |
| 2026-05-07 12:02 | 23.13664 | 98.20978 | 35889 ft | 450 kts | 251° |
| 2026-05-07 12:03 | 23.11490 | 98.14588 | 35881 ft | 449 kts | 251° |
| 2026-05-07 12:03 | 23.09332 | 98.08255 | 35889 ft | 450 kts | 251° |
| 2026-05-07 12:04 | 23.07150 | 98.01860 | 35882 ft | 451 kts | 250° |
| 2026-05-07 12:04 | 23.04966 | 97.95469 | 35868 ft | 450 kts | 250° |
| 2026-05-07 12:05 | 23.02793 | 97.89116 | 35867 ft | 450 kts | 250° |
| 2026-05-07 12:05 | 23.00607 | 97.82737 | 35867 ft | 450 kts | 250° |
| 2026-05-07 12:06 | 22.99005 | 97.76177 | 35862 ft | 450 kts | 263° |
| 2026-05-07 12:06 | 22.98762 | 97.69398 | 35860 ft | 450 kts | 274° |
| 2026-05-07 12:07 | 22.99551 | 97.62687 | 35869 ft | 451 kts | 276° |
| 2026-05-07 12:07 | 23.00442 | 97.55931 | 35870 ft | 452 kts | 276° |
| 2026-05-07 12:08 | 23.01304 | 97.49168 | 35869 ft | 451 kts | 276° |
| 2026-05-07 12:08 | 23.02135 | 97.42410 | 35878 ft | 451 kts | 276° |
| 2026-05-07 12:09 | 23.02953 | 97.35646 | 35877 ft | 452 kts | 276° |
| 2026-05-07 12:09 | 23.03763 | 97.28920 | 35881 ft | 450 kts | 276° |
| 2026-05-07 12:10 | 23.04575 | 97.22168 | 35900 ft | 451 kts | 275° |
| 2026-05-07 12:10 | 23.05384 | 97.15410 | 35891 ft | 451 kts | 275° |
| 2026-05-07 12:11 | 23.06190 | 97.08655 | 35895 ft | 450 kts | 275° |
| 2026-05-07 12:11 | 23.06987 | 97.01945 | 35889 ft | 450 kts | 275° |
| 2026-05-07 12:12 | 23.07786 | 96.95198 | 35874 ft | 450 kts | 275° |
| 2026-05-07 12:12 | 23.08584 | 96.88438 | 35881 ft | 450 kts | 275° |
| 2026-05-07 12:13 | 23.09376 | 96.81708 | 35868 ft | 449 kts | 275° |
| 2026-05-07 12:13 | 23.10160 | 96.75009 | 35862 ft | 450 kts | 275° |
| 2026-05-07 12:14 | 23.10951 | 96.68237 | 35858 ft | 450 kts | 275° |
| 2026-05-07 12:14 | 23.11732 | 96.61520 | 35849 ft | 450 kts | 275° |
| 2026-05-07 12:15 | 23.12515 | 96.54757 | 35846 ft | 450 kts | 275° |
| 2026-05-07 12:15 | 23.13296 | 96.47991 | 35843 ft | 450 kts | 275° |
| 2026-05-07 12:16 | 23.14067 | 96.41279 | 35838 ft | 450 kts | 275° |
| 2026-05-07 12:16 | 23.14841 | 96.34527 | 35830 ft | 450 kts | 275° |
| 2026-05-07 12:17 | 23.15611 | 96.27767 | 35833 ft | 450 kts | 275° |
| 2026-05-07 12:17 | 23.16375 | 96.21044 | 35827 ft | 449 kts | 275° |
| 2026-05-07 12:18 | 23.17141 | 96.14281 | 35825 ft | 450 kts | 275° |
| 2026-05-07 12:18 | 23.17899 | 96.07557 | 35815 ft | 449 kts | 275° |
| 2026-05-07 12:19 | 23.18657 | 96.00810 | 35812 ft | 449 kts | 275° |
| 2026-05-07 12:19 | 23.19411 | 95.94072 | 35816 ft | 448 kts | 275° |
| 2026-05-07 12:20 | 23.20156 | 95.87385 | 35805 ft | 448 kts | 275° |
| 2026-05-07 12:20 | 23.20904 | 95.80644 | 35808 ft | 448 kts | 274° |
| 2026-05-07 12:21 | 23.21650 | 95.73895 | 35810 ft | 448 kts | 274° |
| 2026-05-07 12:21 | 23.22392 | 95.67160 | 35803 ft | 448 kts | 274° |
| 2026-05-07 12:22 | 23.23126 | 95.60473 | 35813 ft | 447 kts | 274° |
| 2026-05-07 12:22 | 23.23742 | 95.54839 | 35808 ft | 447 kts | 274° |
| 2026-05-07 12:23 | 23.24471 | 95.48134 | 35809 ft | 447 kts | 274° |
| 2026-05-07 12:23 | 23.25200 | 95.41413 | 35818 ft | 447 kts | 274° |
| 2026-05-07 12:24 | 23.25921 | 95.34739 | 35805 ft | 447 kts | 274° |
| 2026-05-07 12:24 | 23.26644 | 95.28019 | 35816 ft | 447 kts | 274° |
| 2026-05-07 12:25 | 23.27365 | 95.21291 | 35819 ft | 447 kts | 274° |
| 2026-05-07 12:25 | 23.28078 | 95.14610 | 35830 ft | 446 kts | 274° |
| 2026-05-07 12:26 | 23.28792 | 95.07893 | 35838 ft | 446 kts | 274° |
| 2026-05-07 12:26 | 23.29498 | 95.01220 | 35830 ft | 446 kts | 274° |
| 2026-05-07 12:27 | 23.30206 | 94.94497 | 35834 ft | 447 kts | 274° |
| 2026-05-07 12:27 | 23.30910 | 94.87791 | 35838 ft | 446 kts | 274° |
| 2026-05-07 12:28 | 23.31609 | 94.81108 | 35838 ft | 446 kts | 274° |
| 2026-05-07 12:28 | 23.32308 | 94.74396 | 35839 ft | 446 kts | 274° |
| 2026-05-07 12:29 | 23.33004 | 94.67678 | 35838 ft | 446 kts | 273° |
| 2026-05-07 12:29 | 23.33694 | 94.60994 | 35834 ft | 446 kts | 273° |
| 2026-05-07 12:30 | 23.34383 | 94.54290 | 35838 ft | 445 kts | 273° |
| 2026-05-07 12:30 | 23.35066 | 94.47615 | 35845 ft | 445 kts | 273° |
| 2026-05-07 12:31 | 23.35748 | 94.40914 | 35840 ft | 445 kts | 273° |
| 2026-05-07 12:31 | 23.36431 | 94.34193 | 35836 ft | 445 kts | 273° |
| 2026-05-07 12:32 | 23.37108 | 94.27487 | 35844 ft | 445 kts | 273° |
| 2026-05-07 12:32 | 23.37781 | 94.20810 | 35845 ft | 446 kts | 273° |
| 2026-05-07 12:33 | 23.38783 | 94.10782 | 35872 ft | 445 kts | 273° |
| 2026-05-07 12:33 | 23.39450 | 94.04069 | 35879 ft | 445 kts | 273° |
| 2026-05-07 12:34 | 23.40115 | 93.97357 | 35892 ft | 445 kts | 273° |
| 2026-05-07 12:34 | 23.40775 | 93.90680 | 35910 ft | 446 kts | 272° |
| 2026-05-07 12:35 | 23.41436 | 93.83949 | 35931 ft | 447 kts | 273° |
| 2026-05-07 12:35 | 23.42094 | 93.77223 | 35944 ft | 445 kts | 272° |
| 2026-05-07 12:36 | 23.42744 | 93.70538 | 35953 ft | 446 kts | 272° |
| 2026-05-07 12:36 | 23.43396 | 93.63806 | 35949 ft | 447 kts | 272° |
| 2026-05-07 12:37 | 23.44047 | 93.57060 | 35956 ft | 446 kts | 272° |
| 2026-05-07 12:37 | 23.44688 | 93.50395 | 35971 ft | 445 kts | 272° |
| 2026-05-07 12:38 | 23.45527 | 93.43683 | 35963 ft | 449 kts | 277° |
| 2026-05-07 12:38 | 23.46810 | 93.37018 | 35971 ft | 450 kts | 278° |
| 2026-05-07 12:39 | 23.48102 | 93.30338 | 35965 ft | 448 kts | 278° |
| 2026-05-07 12:39 | 23.49370 | 93.23685 | 35970 ft | 448 kts | 277° |
| 2026-05-07 12:40 | 23.50614 | 93.17071 | 35952 ft | 447 kts | 277° |
| 2026-05-07 12:40 | 23.51860 | 93.10428 | 35955 ft | 447 kts | 277° |
| 2026-05-07 12:41 | 23.53108 | 93.03769 | 35943 ft | 447 kts | 277° |
| 2026-05-07 12:41 | 23.54341 | 92.97184 | 35933 ft | 446 kts | 277° |
| 2026-05-07 12:42 | 23.55579 | 92.90540 | 35939 ft | 446 kts | 277° |
| 2026-05-07 12:42 | 23.56713 | 92.84450 | 35917 ft | 444 kts | 277° |
| 2026-05-07 12:43 | 23.57944 | 92.77816 | 35939 ft | 447 kts | 277° |
| 2026-05-07 12:43 | 23.59164 | 92.71227 | 35930 ft | 446 kts | 277° |
| 2026-05-07 12:44 | 23.60388 | 92.64612 | 35925 ft | 443 kts | 277° |
| 2026-05-07 12:44 | 23.61665 | 92.58020 | 35937 ft | 444 kts | 278° |
| 2026-05-07 12:45 | 23.63059 | 92.51415 | 35914 ft | 447 kts | 278° |
| 2026-05-07 12:45 | 23.64450 | 92.44831 | 35921 ft | 444 kts | 278° |
| 2026-05-07 12:46 | 23.65823 | 92.38258 | 35903 ft | 445 kts | 278° |
| 2026-05-07 12:46 | 23.67186 | 92.31662 | 35909 ft | 443 kts | 278° |
| 2026-05-07 12:47 | 23.68529 | 92.25155 | 35885 ft | 441 kts | 278° |
| 2026-05-07 12:47 | 23.69879 | 92.18592 | 35893 ft | 443 kts | 278° |
| 2026-05-07 12:48 | 23.71221 | 92.12056 | 35880 ft | 444 kts | 278° |
| 2026-05-07 12:48 | 23.72572 | 92.05469 | 35885 ft | 444 kts | 278° |
| 2026-05-07 12:49 | 23.73920 | 91.98873 | 35874 ft | 444 kts | 277° |
| 2026-05-07 12:49 | 23.75263 | 91.92292 | 35861 ft | 443 kts | 278° |
| 2026-05-07 12:50 | 23.76592 | 91.85767 | 35856 ft | 443 kts | 278° |
| 2026-05-07 12:50 | 23.77927 | 91.79192 | 35858 ft | 443 kts | 278° |
| 2026-05-07 12:51 | 23.79261 | 91.72604 | 35868 ft | 444 kts | 278° |
| 2026-05-07 12:51 | 23.80587 | 91.66049 | 35855 ft | 443 kts | 278° |
| 2026-05-07 12:52 | 23.81914 | 91.59471 | 35849 ft | 442 kts | 278° |
| 2026-05-07 12:52 | 23.83234 | 91.52912 | 35846 ft | 442 kts | 278° |
| 2026-05-07 12:53 | 23.84546 | 91.46375 | 35837 ft | 442 kts | 278° |
| 2026-05-07 12:53 | 23.85863 | 91.39799 | 35833 ft | 442 kts | 278° |
| 2026-05-07 12:54 | 23.87168 | 91.33269 | 35834 ft | 442 kts | 278° |
| 2026-05-07 12:54 | 23.88476 | 91.26710 | 35831 ft | 441 kts | 278° |
| 2026-05-07 12:55 | 23.89817 | 91.20161 | 35828 ft | 442 kts | 278° |
| 2026-05-07 12:55 | 23.91249 | 91.13669 | 35831 ft | 441 kts | 279° |
| 2026-05-07 12:56 | 23.92695 | 91.07142 | 35834 ft | 441 kts | 279° |
| 2026-05-07 12:56 | 23.94127 | 91.00605 | 35838 ft | 441 kts | 279° |
| 2026-05-07 12:57 | 23.95547 | 90.94075 | 35843 ft | 440 kts | 278° |
| 2026-05-07 12:57 | 23.96952 | 90.87596 | 35848 ft | 440 kts | 278° |
| 2026-05-07 12:58 | 23.98363 | 90.81078 | 35852 ft | 440 kts | 278° |
| 2026-05-07 12:58 | 23.99771 | 90.74561 | 35853 ft | 440 kts | 278° |
| 2026-05-07 12:59 | 24.01176 | 90.68045 | 35852 ft | 439 kts | 278° |
| 2026-05-07 12:59 | 24.02570 | 90.61561 | 35848 ft | 440 kts | 278° |
| 2026-05-07 13:00 | 24.03970 | 90.55038 | 35843 ft | 439 kts | 278° |
| 2026-05-07 13:00 | 24.05357 | 90.48562 | 35847 ft | 439 kts | 278° |
| 2026-05-07 13:01 | 24.06749 | 90.42049 | 35846 ft | 438 kts | 278° |
| 2026-05-07 13:01 | 24.08131 | 90.35546 | 35846 ft | 438 kts | 278° |
| 2026-05-07 13:02 | 24.09499 | 90.29082 | 35852 ft | 438 kts | 278° |
| 2026-05-07 13:02 | 24.10872 | 90.22571 | 35861 ft | 438 kts | 278° |
| 2026-05-07 13:03 | 24.12246 | 90.16047 | 35856 ft | 438 kts | 278° |
| 2026-05-07 13:03 | 24.13608 | 90.09571 | 35860 ft | 438 kts | 278° |
| 2026-05-07 13:04 | 24.14974 | 90.03057 | 35862 ft | 438 kts | 278° |
| 2026-05-07 13:04 | 24.16337 | 89.96540 | 35861 ft | 438 kts | 278° |
| 2026-05-07 13:05 | 24.17687 | 89.90073 | 35861 ft | 438 kts | 278° |
| 2026-05-07 13:05 | 24.19043 | 89.83565 | 35863 ft | 438 kts | 278° |
| 2026-05-07 13:06 | 24.20168 | 89.78156 | 35862 ft | 437 kts | 278° |
| 2026-05-07 13:06 | 24.21517 | 89.71651 | 35862 ft | 437 kts | 278° |
| 2026-05-07 13:07 | 24.22864 | 89.65147 | 35861 ft | 436 kts | 278° |
| 2026-05-07 13:07 | 24.24198 | 89.58685 | 35864 ft | 436 kts | 278° |
| 2026-05-07 13:08 | 24.25538 | 89.52182 | 35863 ft | 436 kts | 278° |
| 2026-05-07 13:08 | 24.26866 | 89.45722 | 35865 ft | 437 kts | 278° |
| 2026-05-07 13:09 | 24.28200 | 89.39216 | 35863 ft | 436 kts | 278° |
| 2026-05-07 13:09 | 24.29531 | 89.32716 | 35863 ft | 435 kts | 278° |
| 2026-05-07 13:10 | 24.30854 | 89.26238 | 35865 ft | 435 kts | 278° |
| 2026-05-07 13:10 | 24.32169 | 89.19782 | 35864 ft | 435 kts | 278° |
| 2026-05-07 13:11 | 24.33485 | 89.13308 | 35868 ft | 435 kts | 278° |
| 2026-05-07 13:11 | 24.34797 | 89.06837 | 35869 ft | 434 kts | 278° |
| 2026-05-07 13:12 | 24.36098 | 89.00405 | 35872 ft | 434 kts | 278° |
| 2026-05-07 13:12 | 24.37405 | 88.93931 | 35865 ft | 434 kts | 278° |
| 2026-05-07 13:13 | 24.38705 | 88.87474 | 35870 ft | 433 kts | 277° |
| 2026-05-07 13:13 | 24.39995 | 88.81055 | 35866 ft | 433 kts | 277° |
| 2026-05-07 13:14 | 24.41290 | 88.74591 | 35869 ft | 433 kts | 277° |
| 2026-05-07 13:14 | 24.42581 | 88.68139 | 35875 ft | 433 kts | 277° |
| 2026-05-07 13:15 | 24.44063 | 88.61704 | 35872 ft | 437 kts | 283° |
| 2026-05-07 13:15 | 24.46368 | 88.55529 | 35875 ft | 441 kts | 288° |
| 2026-05-07 13:16 | 24.48981 | 88.49399 | 35874 ft | 441 kts | 288° |
| 2026-05-07 13:16 | 24.51552 | 88.43333 | 35873 ft | 440 kts | 288° |
| 2026-05-07 13:17 | 24.54122 | 88.37219 | 35867 ft | 440 kts | 288° |
| 2026-05-07 13:17 | 24.56682 | 88.31107 | 35867 ft | 440 kts | 288° |
| 2026-05-07 13:18 | 24.59226 | 88.25026 | 35869 ft | 439 kts | 288° |
| 2026-05-07 13:18 | 24.61779 | 88.18916 | 35868 ft | 439 kts | 288° |
| 2026-05-07 13:19 | 24.64309 | 88.12852 | 35866 ft | 439 kts | 288° |
| 2026-05-07 13:19 | 24.66862 | 88.06729 | 35872 ft | 439 kts | 288° |
| 2026-05-07 13:20 | 24.69404 | 88.00610 | 35870 ft | 439 kts | 288° |
| 2026-05-07 13:20 | 24.71919 | 87.94498 | 35868 ft | 439 kts | 288° |
| 2026-05-07 13:21 | 24.74420 | 87.88408 | 35868 ft | 438 kts | 288° |
| 2026-05-07 13:21 | 24.76935 | 87.82283 | 35869 ft | 438 kts | 288° |
| 2026-05-07 13:22 | 24.79455 | 87.76208 | 35865 ft | 439 kts | 288° |
| 2026-05-07 13:22 | 24.82061 | 87.70107 | 35865 ft | 440 kts | 288° |
| 2026-05-07 13:23 | 24.84671 | 87.64004 | 35867 ft | 439 kts | 288° |
| 2026-05-07 13:23 | 24.87253 | 87.57936 | 35870 ft | 440 kts | 288° |
| 2026-05-07 13:24 | 24.89844 | 87.51827 | 35866 ft | 439 kts | 288° |
| 2026-05-07 13:24 | 24.92409 | 87.45773 | 35861 ft | 436 kts | 288° |
| 2026-05-07 13:25 | 24.94971 | 87.39708 | 35872 ft | 438 kts | 288° |
| 2026-05-07 13:25 | 24.97555 | 87.33581 | 35864 ft | 440 kts | 288° |
| 2026-05-07 13:26 | 25.00119 | 87.27501 | 35862 ft | 439 kts | 288° |
| 2026-05-07 13:26 | 25.02697 | 87.21383 | 35861 ft | 439 kts | 288° |
| 2026-05-07 13:27 | 25.05266 | 87.15271 | 35858 ft | 439 kts | 288° |
| 2026-05-07 13:27 | 25.07842 | 87.09135 | 35862 ft | 439 kts | 288° |
| 2026-05-07 13:28 | 25.10397 | 87.03040 | 35857 ft | 440 kts | 288° |
| 2026-05-07 13:28 | 25.12964 | 86.96910 | 35860 ft | 440 kts | 288° |
| 2026-05-07 13:29 | 25.15516 | 86.90805 | 35854 ft | 440 kts | 288° |
| 2026-05-07 13:29 | 25.18076 | 86.84675 | 35854 ft | 440 kts | 288° |
| 2026-05-07 13:30 | 25.20639 | 86.78526 | 35851 ft | 440 kts | 288° |
| 2026-05-07 13:30 | 25.23190 | 86.72398 | 35855 ft | 440 kts | 288° |
| 2026-05-07 13:31 | 25.25730 | 86.66288 | 35866 ft | 440 kts | 288° |
| 2026-05-07 13:31 | 25.28272 | 86.60166 | 35852 ft | 439 kts | 288° |
| 2026-05-07 13:32 | 25.30819 | 86.54019 | 35853 ft | 439 kts | 288° |
| 2026-05-07 13:32 | 25.33362 | 86.47878 | 35852 ft | 439 kts | 288° |
| 2026-05-07 13:33 | 25.35422 | 86.41594 | 35855 ft | 433 kts | 281° |
| 2026-05-07 13:33 | 25.36684 | 86.35099 | 35855 ft | 431 kts | 277° |
| 2026-05-07 13:34 | 25.38438 | 86.25311 | 35846 ft | 431 kts | 277° |
| 2026-05-07 13:35 | 25.39604 | 86.18869 | 35848 ft | 430 kts | 277° |
| 2026-05-07 13:35 | 25.40786 | 86.12347 | 35847 ft | 431 kts | 277° |
| 2026-05-07 13:36 | 25.41959 | 86.05863 | 35850 ft | 432 kts | 277° |
| 2026-05-07 13:36 | 25.43138 | 85.99336 | 35844 ft | 432 kts | 277° |
| 2026-05-07 13:37 | 25.44315 | 85.92799 | 35849 ft | 432 kts | 277° |
| 2026-05-07 13:37 | 25.45483 | 85.86294 | 35855 ft | 433 kts | 278° |
| 2026-05-07 13:38 | 25.46659 | 85.79727 | 35852 ft | 434 kts | 278° |
| 2026-05-07 13:38 | 25.47822 | 85.73214 | 35857 ft | 434 kts | 278° |
| 2026-05-07 13:39 | 25.48993 | 85.66644 | 35862 ft | 434 kts | 278° |
| 2026-05-07 13:39 | 25.50155 | 85.60100 | 35861 ft | 435 kts | 278° |
| 2026-05-07 13:40 | 25.51320 | 85.53524 | 35862 ft | 435 kts | 277° |
| 2026-05-07 13:40 | 25.52481 | 85.46954 | 35863 ft | 435 kts | 277° |
| 2026-05-07 13:41 | 25.53636 | 85.40403 | 35856 ft | 435 kts | 277° |
| 2026-05-07 13:41 | 25.54792 | 85.33821 | 35847 ft | 435 kts | 277° |
| 2026-05-07 13:42 | 25.55948 | 85.27228 | 35841 ft | 436 kts | 277° |
| 2026-05-07 13:42 | 25.57095 | 85.20665 | 35831 ft | 436 kts | 277° |
| 2026-05-07 13:43 | 25.58304 | 85.14065 | 35831 ft | 438 kts | 281° |
| 2026-05-07 13:43 | 25.60385 | 85.07668 | 35839 ft | 444 kts | 289° |
| 2026-05-07 13:44 | 25.63239 | 85.01601 | 35835 ft | 449 kts | 296° |
| 2026-05-07 13:44 | 25.66543 | 84.95683 | 35840 ft | 450 kts | 296° |
| 2026-05-07 13:45 | 25.69840 | 84.89815 | 35844 ft | 451 kts | 296° |
| 2026-05-07 13:45 | 25.73141 | 84.83874 | 35852 ft | 451 kts | 296° |
| 2026-05-07 13:46 | 25.76399 | 84.77966 | 35855 ft | 451 kts | 296° |
| 2026-05-07 13:46 | 25.79675 | 84.72011 | 35856 ft | 451 kts | 296° |
| 2026-05-07 13:47 | 25.82946 | 84.66057 | 35856 ft | 451 kts | 296° |
| 2026-05-07 13:47 | 25.86194 | 84.60136 | 35855 ft | 452 kts | 296° |
| 2026-05-07 13:48 | 25.89467 | 84.54165 | 35851 ft | 452 kts | 296° |
| 2026-05-07 13:48 | 25.92741 | 84.48186 | 35849 ft | 452 kts | 296° |
| 2026-05-07 13:49 | 25.95991 | 84.42242 | 35849 ft | 452 kts | 296° |
| 2026-05-07 13:49 | 25.99260 | 84.36254 | 35849 ft | 453 kts | 296° |
| 2026-05-07 13:50 | 26.02529 | 84.30259 | 35844 ft | 453 kts | 296° |
| 2026-05-07 13:50 | 26.05780 | 84.24289 | 35844 ft | 453 kts | 296° |
| 2026-05-07 13:51 | 26.09044 | 84.18288 | 35846 ft | 453 kts | 296° |
| 2026-05-07 13:51 | 26.11752 | 84.13302 | 35845 ft | 453 kts | 296° |
| 2026-05-07 13:52 | 26.15014 | 84.07290 | 35842 ft | 453 kts | 296° |
| 2026-05-07 13:52 | 26.18272 | 84.01277 | 35844 ft | 453 kts | 296° |
| 2026-05-07 13:53 | 26.21533 | 83.95247 | 35843 ft | 454 kts | 296° |
| 2026-05-07 13:53 | 26.24768 | 83.89263 | 35843 ft | 453 kts | 296° |
| 2026-05-07 13:54 | 26.28029 | 83.83231 | 35845 ft | 453 kts | 296° |
| 2026-05-07 13:54 | 26.31289 | 83.77218 | 35845 ft | 453 kts | 296° |
| 2026-05-07 13:55 | 26.34554 | 83.71189 | 35846 ft | 453 kts | 296° |
| 2026-05-07 13:55 | 26.37787 | 83.65207 | 35850 ft | 453 kts | 296° |
| 2026-05-07 13:56 | 26.41037 | 83.59185 | 35852 ft | 453 kts | 296° |
| 2026-05-07 13:56 | 26.44266 | 83.53192 | 35857 ft | 453 kts | 296° |
| 2026-05-07 13:57 | 26.47519 | 83.47146 | 35852 ft | 453 kts | 296° |
| 2026-05-07 13:57 | 26.50746 | 83.41142 | 35852 ft | 452 kts | 296° |
| 2026-05-07 13:58 | 26.53990 | 83.35097 | 35858 ft | 453 kts | 296° |
| 2026-05-07 13:58 | 26.57210 | 83.29088 | 35853 ft | 453 kts | 297° |
| 2026-05-07 13:59 | 26.60452 | 83.23032 | 35849 ft | 453 kts | 297° |
| 2026-05-07 13:59 | 26.63691 | 83.16972 | 35851 ft | 454 kts | 297° |
| 2026-05-07 14:00 | 26.66938 | 83.10889 | 35846 ft | 455 kts | 297° |
| 2026-05-07 14:00 | 26.70166 | 83.04833 | 35849 ft | 456 kts | 297° |
| 2026-05-07 14:01 | 26.73411 | 82.98737 | 35844 ft | 456 kts | 297° |
| 2026-05-07 14:01 | 26.76664 | 82.92617 | 35848 ft | 457 kts | 297° |
| 2026-05-07 14:02 | 26.79895 | 82.86532 | 35844 ft | 457 kts | 297° |
| 2026-05-07 14:02 | 26.83153 | 82.80387 | 35848 ft | 458 kts | 297° |
| 2026-05-07 14:03 | 26.86390 | 82.74271 | 35847 ft | 458 kts | 297° |
| 2026-05-07 14:03 | 26.89641 | 82.68122 | 35849 ft | 458 kts | 297° |
| 2026-05-07 14:04 | 26.92872 | 82.62001 | 35846 ft | 458 kts | 297° |
| 2026-05-07 14:04 | 26.96120 | 82.55841 | 35853 ft | 458 kts | 297° |
| 2026-05-07 14:05 | 26.99365 | 82.49676 | 35850 ft | 458 kts | 297° |
| 2026-05-07 14:05 | 27.02606 | 82.43511 | 35852 ft | 458 kts | 297° |
| 2026-05-07 14:06 | 27.05852 | 82.37326 | 35850 ft | 459 kts | 297° |
| 2026-05-07 14:06 | 27.09074 | 82.31180 | 35855 ft | 459 kts | 297° |
| 2026-05-07 14:07 | 27.12314 | 82.24990 | 35853 ft | 458 kts | 296° |
| 2026-05-07 14:07 | 27.14991 | 82.18534 | 35864 ft | 454 kts | 288° |
| 2026-05-07 14:08 | 27.16745 | 82.11769 | 35863 ft | 453 kts | 282° |
| 2026-05-07 14:08 | 27.18227 | 82.04881 | 35856 ft | 453 kts | 281° |
| 2026-05-07 14:09 | 27.19700 | 81.98034 | 35850 ft | 453 kts | 282° |
| 2026-05-07 14:09 | 27.21199 | 81.91144 | 35847 ft | 453 kts | 282° |
| 2026-05-07 14:10 | 27.22693 | 81.84310 | 35852 ft | 453 kts | 282° |
| 2026-05-07 14:10 | 27.24191 | 81.77442 | 35854 ft | 453 kts | 282° |
| 2026-05-07 14:11 | 27.25689 | 81.70556 | 35852 ft | 453 kts | 282° |
| 2026-05-07 14:11 | 27.27185 | 81.63663 | 35851 ft | 453 kts | 282° |
| 2026-05-07 14:12 | 27.28666 | 81.56820 | 35853 ft | 453 kts | 282° |
| 2026-05-07 14:12 | 27.30150 | 81.49943 | 35842 ft | 453 kts | 282° |
| 2026-05-07 14:13 | 27.31636 | 81.43041 | 35845 ft | 453 kts | 282° |
| 2026-05-07 14:13 | 27.33119 | 81.36135 | 35852 ft | 453 kts | 282° |
| 2026-05-07 14:14 | 27.34591 | 81.29263 | 35849 ft | 454 kts | 282° |
| 2026-05-07 14:14 | 27.36067 | 81.22352 | 35853 ft | 454 kts | 282° |
| 2026-05-07 14:15 | 27.37534 | 81.15470 | 35852 ft | 454 kts | 282° |
| 2026-05-07 14:15 | 27.39007 | 81.08539 | 35845 ft | 454 kts | 282° |
| 2026-05-07 14:16 | 27.40474 | 81.01619 | 35843 ft | 455 kts | 282° |
| 2026-05-07 14:16 | 27.41939 | 80.94692 | 35843 ft | 454 kts | 282° |
| 2026-05-07 14:17 | 27.43282 | 80.88321 | 35850 ft | 454 kts | 282° |
| 2026-05-07 14:17 | 27.44741 | 80.81387 | 35852 ft | 455 kts | 282° |
| 2026-05-07 14:18 | 27.46188 | 80.74493 | 35861 ft | 455 kts | 282° |
| 2026-05-07 14:18 | 27.47639 | 80.67557 | 35852 ft | 455 kts | 282° |
| 2026-05-07 14:19 | 27.49090 | 80.60606 | 35856 ft | 455 kts | 282° |
| 2026-05-07 14:19 | 27.50530 | 80.53698 | 35858 ft | 454 kts | 282° |
| 2026-05-07 14:20 | 27.52025 | 80.46775 | 35856 ft | 454 kts | 283° |
| 2026-05-07 14:20 | 27.53539 | 80.39856 | 35858 ft | 454 kts | 283° |
| 2026-05-07 14:21 | 27.55047 | 80.32923 | 35861 ft | 454 kts | 283° |
| 2026-05-07 14:21 | 27.56533 | 80.26048 | 35857 ft | 454 kts | 283° |
| 2026-05-07 14:22 | 27.58030 | 80.19100 | 35861 ft | 454 kts | 283° |
| 2026-05-07 14:22 | 27.59509 | 80.12215 | 35864 ft | 454 kts | 283° |
| 2026-05-07 14:23 | 27.60995 | 80.05281 | 35863 ft | 454 kts | 283° |
| 2026-05-07 14:23 | 27.62474 | 79.98361 | 35865 ft | 453 kts | 283° |
| 2026-05-07 14:24 | 27.63941 | 79.91481 | 35865 ft | 453 kts | 283° |
| 2026-05-07 14:24 | 27.65417 | 79.84544 | 35862 ft | 453 kts | 283° |
| 2026-05-07 14:25 | 27.66879 | 79.77650 | 35863 ft | 453 kts | 283° |
| 2026-05-07 14:25 | 27.68343 | 79.70732 | 35862 ft | 453 kts | 283° |
| 2026-05-07 14:26 | 27.70223 | 79.63957 | 35852 ft | 454 kts | 299° |
| 2026-05-07 14:26 | 27.73766 | 79.58034 | 35864 ft | 456 kts | 303° |
| 2026-05-07 14:27 | 27.77322 | 79.52148 | 35867 ft | 456 kts | 303° |
| 2026-05-07 14:27 | 27.80850 | 79.46192 | 35867 ft | 455 kts | 302° |
| 2026-05-07 14:28 | 27.84352 | 79.40226 | 35872 ft | 454 kts | 302° |
| 2026-05-07 14:28 | 27.87827 | 79.34294 | 35875 ft | 455 kts | 302° |
| 2026-05-07 14:29 | 27.91325 | 79.28318 | 35871 ft | 455 kts | 302° |
| 2026-05-07 14:29 | 27.94824 | 79.22335 | 35873 ft | 456 kts | 302° |
| 2026-05-07 14:30 | 27.98299 | 79.16383 | 35875 ft | 455 kts | 302° |
| 2026-05-07 14:30 | 28.01792 | 79.10394 | 35877 ft | 455 kts | 302° |
| 2026-05-07 14:31 | 28.05280 | 79.04404 | 35876 ft | 455 kts | 302° |
| 2026-05-07 14:31 | 28.08769 | 78.98403 | 35881 ft | 455 kts | 303° |
| 2026-05-07 14:32 | 28.12063 | 78.92331 | 35881 ft | 455 kts | 297° |
| 2026-05-07 14:32 | 28.14834 | 78.85878 | 35884 ft | 455 kts | 295° |
| 2026-05-07 14:33 | 28.17062 | 78.80495 | 35668 ft | 452 kts | 295° |
| 2026-05-07 14:33 | 28.18419 | 78.77272 | 35295 ft | 454 kts | 296° |
| 2026-05-07 14:33 | 28.19801 | 78.74035 | 34863 ft | 457 kts | 296° |
| 2026-05-07 14:33 | 28.21663 | 78.69716 | 34273 ft | 462 kts | 296° |
| 2026-05-07 14:34 | 28.22622 | 78.67501 | 33993 ft | 464 kts | 296° |
| 2026-05-07 14:34 | 28.24050 | 78.64209 | 33514 ft | 466 kts | 296° |
| 2026-05-07 14:34 | 28.25484 | 78.60898 | 33083 ft | 467 kts | 296° |
| 2026-05-07 14:34 | 28.26914 | 78.57594 | 32659 ft | 467 kts | 296° |
| 2026-05-07 14:35 | 28.28347 | 78.54280 | 32213 ft | 468 kts | 296° |
| 2026-05-07 14:35 | 28.29786 | 78.50944 | 31742 ft | 468 kts | 296° |
| 2026-05-07 14:35 | 28.31214 | 78.47632 | 31125 ft | 467 kts | 296° |
| 2026-05-07 14:35 | 28.32641 | 78.44317 | 30328 ft | 466 kts | 296° |
| 2026-05-07 14:36 | 28.34058 | 78.41023 | 29725 ft | 460 kts | 297° |
| 2026-05-07 14:36 | 28.35439 | 78.37810 | 29556 ft | 445 kts | 297° |
| 2026-05-07 14:36 | 28.36760 | 78.34734 | 29341 ft | 431 kts | 297° |
| 2026-05-07 14:36 | 28.38055 | 78.31717 | 29137 ft | 419 kts | 297° |
| 2026-05-07 14:37 | 28.39318 | 78.28772 | 28975 ft | 408 kts | 297° |
| 2026-05-07 14:37 | 28.41755 | 78.23087 | 28751 ft | 392 kts | 297° |
| 2026-05-07 14:37 | 28.42929 | 78.20346 | 28546 ft | 388 kts | 297° |
| 2026-05-07 14:38 | 28.44107 | 78.17592 | 28201 ft | 386 kts | 297° |
| 2026-05-07 14:38 | 28.45280 | 78.14852 | 27846 ft | 386 kts | 297° |
| 2026-05-07 14:38 | 28.46449 | 78.12114 | 27463 ft | 382 kts | 297° |
| 2026-05-07 14:38 | 28.47610 | 78.09397 | 27003 ft | 380 kts | 297° |
| 2026-05-07 14:39 | 28.48759 | 78.06702 | 26565 ft | 377 kts | 297° |
| 2026-05-07 14:39 | 28.49889 | 78.04052 | 26322 ft | 368 kts | 297° |
| 2026-05-07 14:39 | 28.50992 | 78.01464 | 26156 ft | 359 kts | 297° |
| 2026-05-07 14:39 | 28.52043 | 77.98993 | 25844 ft | 344 kts | 297° |
| 2026-05-07 14:40 | 28.53084 | 77.96551 | 25338 ft | 343 kts | 297° |
| 2026-05-07 14:40 | 28.54150 | 77.94108 | 24888 ft | 343 kts | 298° |
| 2026-05-07 14:40 | 28.55216 | 77.91690 | 24543 ft | 340 kts | 298° |
| 2026-05-07 14:40 | 28.56275 | 77.89289 | 24211 ft | 337 kts | 298° |
| 2026-05-07 14:41 | 28.57324 | 77.86908 | 23847 ft | 336 kts | 298° |
| 2026-05-07 14:41 | 28.58368 | 77.84534 | 23461 ft | 335 kts | 298° |
| 2026-05-07 14:41 | 28.59407 | 77.82167 | 23017 ft | 334 kts | 298° |
| 2026-05-07 14:41 | 28.60429 | 77.79838 | 22609 ft | 331 kts | 298° |
| 2026-05-07 14:42 | 28.61457 | 77.77491 | 22228 ft | 329 kts | 298° |
| 2026-05-07 14:42 | 28.62474 | 77.75168 | 21839 ft | 327 kts | 298° |
| 2026-05-07 14:42 | 28.63485 | 77.72856 | 21439 ft | 325 kts | 298° |
| 2026-05-07 14:42 | 28.64488 | 77.70563 | 21064 ft | 323 kts | 298° |
| 2026-05-07 14:43 | 28.65477 | 77.68301 | 20692 ft | 321 kts | 298° |
| 2026-05-07 14:43 | 28.66470 | 77.66028 | 20314 ft | 319 kts | 298° |
| 2026-05-07 14:43 | 28.67453 | 77.63775 | 20051 ft | 313 kts | 298° |
| 2026-05-07 14:43 | 28.68408 | 77.61583 | 19934 ft | 304 kts | 298° |
| 2026-05-07 14:44 | 28.69333 | 77.59461 | 19779 ft | 295 kts | 298° |
| 2026-05-07 14:44 | 28.70227 | 77.57407 | 19473 ft | 285 kts | 298° |
| 2026-05-07 14:44 | 28.71105 | 77.55392 | 18947 ft | 283 kts | 298° |
| 2026-05-07 14:44 | 28.71981 | 77.53382 | 18363 ft | 283 kts | 298° |
| 2026-05-07 14:45 | 28.72853 | 77.51380 | 17792 ft | 281 kts | 298° |
| 2026-05-07 14:45 | 28.73716 | 77.49396 | 17253 ft | 276 kts | 298° |
| 2026-05-07 14:45 | 28.74563 | 77.47446 | 16696 ft | 273 kts | 298° |
| 2026-05-07 14:45 | 28.75338 | 77.45727 | 16276 ft | 268 kts | 298° |
| 2026-05-07 14:46 | 28.76163 | 77.43818 | 15683 ft | 268 kts | 297° |
| 2026-05-07 14:46 | 28.76980 | 77.41915 | 15164 ft | 267 kts | 297° |
| 2026-05-07 14:46 | 28.77799 | 77.40010 | 14852 ft | 265 kts | 297° |
| 2026-05-07 14:46 | 28.78599 | 77.38156 | 14607 ft | 261 kts | 297° |
| 2026-05-07 14:47 | 28.79141 | 77.36203 | 14191 ft | 263 kts | 279° |
| 2026-05-07 14:47 | 28.79194 | 77.34096 | 13832 ft | 266 kts | 273° |
| 2026-05-07 14:47 | 28.79128 | 77.31989 | 13543 ft | 264 kts | 271° |
| 2026-05-07 14:47 | 28.79045 | 77.29929 | 13207 ft | 262 kts | 271° |
| 2026-05-07 14:48 | 28.78958 | 77.27851 | 12860 ft | 262 kts | 271° |
| 2026-05-07 14:48 | 28.78870 | 77.25794 | 12517 ft | 254 kts | 271° |
| 2026-05-07 14:48 | 28.78783 | 77.23801 | 12060 ft | 250 kts | 271° |
| 2026-05-07 14:48 | 28.78699 | 77.21832 | 11531 ft | 248 kts | 271° |
| 2026-05-07 14:49 | 28.78621 | 77.19859 | 11029 ft | 248 kts | 271° |
| 2026-05-07 14:49 | 28.78548 | 77.17902 | 10549 ft | 247 kts | 271° |
| 2026-05-07 14:49 | 28.78481 | 77.15974 | 10078 ft | 246 kts | 271° |
| 2026-05-07 14:49 | 28.78420 | 77.14021 | 9579 ft | 246 kts | 271° |
| 2026-05-07 14:50 | 28.78368 | 77.12072 | 9067 ft | 245 kts | 271° |
| 2026-05-07 14:50 | 28.78320 | 77.10132 | 8546 ft | 245 kts | 266° |
| 2026-05-07 14:50 | 28.77938 | 77.08264 | 8077 ft | 245 kts | 253° |
| 2026-05-07 14:50 | 28.77371 | 77.06465 | 7746 ft | 237 kts | 251° |
| 2026-05-07 14:51 | 28.76805 | 77.04734 | 7414 ft | 229 kts | 251° |
| 2026-05-07 14:51 | 28.76254 | 77.03043 | 7016 ft | 225 kts | 251° |
| 2026-05-07 14:51 | 28.75715 | 77.01368 | 6575 ft | 224 kts | 251° |
| 2026-05-07 14:51 | 28.75198 | 76.99703 | 6149 ft | 222 kts | 251° |
| 2026-05-07 14:52 | 28.74495 | 76.98154 | 5596 ft | 220 kts | 223° |
| 2026-05-07 14:52 | 28.73320 | 76.97086 | 5271 ft | 210 kts | 212° |
| 2026-05-07 14:52 | 28.72148 | 76.96193 | 4994 ft | 202 kts | 212° |
| 2026-05-07 14:52 | 28.70986 | 76.95313 | 4567 ft | 200 kts | 208° |
| 2026-05-07 14:53 | 28.69712 | 76.94722 | 4118 ft | 198 kts | 193° |
| 2026-05-07 14:53 | 28.68384 | 76.94310 | 3827 ft | 197 kts | 191° |
| 2026-05-07 14:53 | 28.67061 | 76.93908 | 3532 ft | 197 kts | 192° |
| 2026-05-07 14:53 | 28.65739 | 76.93515 | 3264 ft | 195 kts | 191° |
| 2026-05-07 14:54 | 28.64412 | 76.93291 | 3040 ft | 194 kts | 180° |
| 2026-05-07 14:54 | 28.63062 | 76.93255 | 2852 ft | 192 kts | 166° |
| 2026-05-07 14:54 | 28.61946 | 76.93934 | 2723 ft | 183 kts | 133° |
| 2026-05-07 14:54 | 28.61055 | 76.94990 | 2716 ft | 186 kts | 131° |
| 2026-05-07 14:55 | 28.60149 | 76.96064 | 2657 ft | 181 kts | 131° |
| 2026-05-07 14:55 | 28.59532 | 76.97191 | 2627 ft | 168 kts | 108° |
| 2026-05-07 14:55 | 28.59127 | 76.98489 | 2460 ft | 179 kts | 111° |
| 2026-05-07 14:55 | 28.58741 | 76.99760 | 2255 ft | 163 kts | 105° |
| 2026-05-07 14:56 | 28.58441 | 77.01006 | 2066 ft | 162 kts | 104° |
| 2026-05-07 14:56 | 28.58162 | 77.02222 | 1843 ft | 150 kts | 104° |
| 2026-05-07 14:56 | 28.57906 | 77.03339 | 1701 ft | 144 kts | 104° |
| 2026-05-07 14:56 | 28.57651 | 77.04449 | 1475 ft | 147 kts | 104° |
| 2026-05-07 14:57 | 28.57411 | 77.05557 | 1338 ft | 146 kts | 103° |
| 2026-05-07 14:57 | 28.57159 | 77.06652 | 1109 ft | 142 kts | 104° |
| 2026-05-07 14:57 | 28.56905 | 77.07738 | 931 ft | 144 kts | 104° |
| 2026-05-07 14:57 | 28.56644 | 77.08833 | 762 ft | 143 kts | 105° |
| 2026-05-07 14:58 | 28.56415 | 77.09820 | 753 ft | 108 kts | 104° |
| 2026-05-07 14:58 | 28.56273 | 77.10441 | 753 ft | 54 kts | 105° |
| 2026-05-07 14:58 | 28.56192 | 77.10749 | 750 ft | 37 kts | 114° |
| 2026-05-07 14:58 | 28.56083 | 77.10923 | 751 ft | 17 kts | 135° |
| 2026-05-07 14:59 | 28.56021 | 77.10968 | 750 ft | 9 kts | 185° |
| 2026-05-07 14:59 | 28.55985 | 77.10912 | 751 ft | 10 kts | 266° |
| 2026-05-07 14:59 | 28.55995 | 77.10835 | 751 ft | 10 kts | 284° |
| 2026-05-07 14:59 | 28.56014 | 77.10745 | 753 ft | 14 kts | 284° |
| 2026-05-07 15:00 | 28.56041 | 77.10624 | 752 ft | 17 kts | 284° |
| 2026-05-07 15:00 | 28.56072 | 77.10490 | 754 ft | 17 kts | 284° |
| 2026-05-07 15:00 | 28.56102 | 77.10357 | 756 ft | 17 kts | 284° |
| 2026-05-07 15:00 | 28.56131 | 77.10225 | 753 ft | 17 kts | 284° |
| 2026-05-07 15:01 | 28.56162 | 77.10091 | 753 ft | 17 kts | 285° |
| 2026-05-07 15:01 | 28.56193 | 77.09958 | 751 ft | 17 kts | 284° |
| 2026-05-07 15:01 | 28.56222 | 77.09823 | 751 ft | 17 kts | 283° |
| 2026-05-07 15:01 | 28.56254 | 77.09691 | 752 ft | 17 kts | 285° |
| 2026-05-07 15:02 | 28.56285 | 77.09558 | 752 ft | 17 kts | 284° |
| 2026-05-07 15:02 | 28.56314 | 77.09424 | 753 ft | 17 kts | 283° |
| 2026-05-07 15:02 | 28.56348 | 77.09292 | 755 ft | 17 kts | 285° |
| 2026-05-07 15:02 | 28.56375 | 77.09173 | 753 ft | 12 kts | 284° |
| 2026-05-07 15:03 | 28.56362 | 77.09102 | 751 ft | 9 kts | 217° |
| 2026-05-07 15:03 | 28.56310 | 77.09087 | 752 ft | 8 kts | 193° |
| 2026-05-07 15:03 | 28.56255 | 77.09072 | 752 ft | 8 kts | 193° |
| 2026-05-07 15:03 | 28.56198 | 77.09057 | 751 ft | 9 kts | 195° |
| 2026-05-07 15:04 | 28.56143 | 77.09032 | 752 ft | 9 kts | 213° |
| 2026-05-07 15:04 | 28.56138 | 77.08968 | 752 ft | 9 kts | 285° |
| 2026-05-07 15:04 | 28.56154 | 77.08900 | 752 ft | 9 kts | 285° |
| 2026-05-07 15:04 | 28.56170 | 77.08832 | 755 ft | 9 kts | 284° |
| 2026-05-07 15:05 | 28.56187 | 77.08764 | 752 ft | 9 kts | 285° |
| 2026-05-07 15:05 | 28.56205 | 77.08688 | 752 ft | 11 kts | 285° |
| 2026-05-07 15:05 | 28.56229 | 77.08588 | 752 ft | 15 kts | 285° |
| 2026-05-07 15:05 | 28.56258 | 77.08469 | 753 ft | 17 kts | 285° |
| 2026-05-07 15:06 | 28.56286 | 77.08349 | 752 ft | 13 kts | 283° |
| 2026-05-07 15:06 | 28.56266 | 77.08295 | 750 ft | 7 kts | 208° |
| 2026-05-07 15:06 | 28.56219 | 77.08298 | 750 ft | 7 kts | 155° |
| 2026-05-07 15:06 | 28.56179 | 77.08325 | 753 ft | 6 kts | 150° |
| 2026-05-07 15:07 | 28.56146 | 77.08311 | 750 ft | 5 kts | 249° |
| 2026-05-07 15:07 | 28.56138 | 77.08289 | 755 ft | 3 kts | 244° |
| 2026-05-07 15:07 | 28.56130 | 77.08274 | 750 ft | 1 kts | 240° |
| 2026-05-07 15:07 | 28.56128 | 77.08270 | 750 ft | 0 kts | 240° |